sensor_id;sensor_type;location;lat;lon;timestamp;P1;durP1;ratioP1;P2;durP2;ratioP2
19675;SDS011;39539;52.202;9.876;2022-08-19T00:02:24;12.50;;;11.48;;
19675;SDS011;39539;52.202;9.876;2022-08-19T00:04:50;12.23;;;11.25;;
19675;SDS011;39539;52.202;9.876;2022-08-19T00:07:18;12.05;;;11.05;;
19675;SDS011;39539;52.202;9.876;2022-08-19T00:09:44;12.02;;;11.07;;
19675;SDS011;39539;52.202;9.876;2022-08-19T00:12:10;13.50;;;12.40;;
19675;SDS011;39539;52.202;9.876;2022-08-19T00:14:36;13.35;;;12.15;;
19675;SDS011;39539;52.202;9.876;2022-08-19T00:17:02;13.00;;;12.00;;
19675;SDS011;39539;52.202;9.876;2022-08-19T00:19:28;13.10;;;12.20;;
19675;SDS011;39539;52.202;9.876;2022-08-19T00:21:54;13.25;;;12.23;;
19675;SDS011;39539;52.202;9.876;2022-08-19T00:24:20;13.60;;;12.40;;
19675;SDS011;39539;52.202;9.876;2022-08-19T00:26:47;13.00;;;11.90;;
19675;SDS011;39539;52.202;9.876;2022-08-19T00:29:13;12.57;;;11.38;;
19675;SDS011;39539;52.202;9.876;2022-08-19T00:31:40;12.25;;;11.25;;
19675;SDS011;39539;52.202;9.876;2022-08-19T00:34:06;12.30;;;11.50;;
19675;SDS011;39539;52.202;9.876;2022-08-19T00:36:32;12.85;;;11.82;;
19675;SDS011;39539;52.202;9.876;2022-08-19T00:38:58;11.93;;;10.93;;
19675;SDS011;39539;52.202;9.876;2022-08-19T00:41:24;12.07;;;11.00;;
19675;SDS011;39539;52.202;9.876;2022-08-19T00:46:36;12.07;;;11.07;;
19675;SDS011;39539;52.202;9.876;2022-08-19T00:49:06;12.32;;;11.25;;
19675;SDS011;39539;52.202;9.876;2022-08-19T00:51:37;12.30;;;11.30;;
19675;SDS011;39539;52.202;9.876;2022-08-19T00:54:02;12.68;;;11.68;;
19675;SDS011;39539;52.202;9.876;2022-08-19T00:56:28;13.35;;;12.27;;
19675;SDS011;39539;52.202;9.876;2022-08-19T00:58:56;12.23;;;11.32;;
19675;SDS011;39539;52.202;9.876;2022-08-19T01:01:23;12.60;;;11.70;;
19675;SDS011;39539;52.202;9.876;2022-08-19T01:03:48;13.07;;;11.98;;
19675;SDS011;39539;52.202;9.876;2022-08-19T01:06:14;12.85;;;11.85;;
19675;SDS011;39539;52.202;9.876;2022-08-19T01:08:40;12.45;;;11.45;;
19675;SDS011;39539;52.202;9.876;2022-08-19T01:11:05;12.90;;;11.98;;
19675;SDS011;39539;52.202;9.876;2022-08-19T01:13:33;12.82;;;11.77;;
19675;SDS011;39539;52.202;9.876;2022-08-19T01:16:04;12.77;;;11.77;;
19675;SDS011;39539;52.202;9.876;2022-08-19T01:18:32;13.65;;;12.43;;
19675;SDS011;39539;52.202;9.876;2022-08-19T01:21:05;12.93;;;12.00;;
19675;SDS011;39539;52.202;9.876;2022-08-19T01:23:35;12.82;;;11.73;;
19675;SDS011;39539;52.202;9.876;2022-08-19T01:26:15;12.80;;;11.80;;
19675;SDS011;39539;52.202;9.876;2022-08-19T01:28:43;13.10;;;12.07;;
19675;SDS011;39539;52.202;9.876;2022-08-19T01:31:12;13.48;;;12.38;;
19675;SDS011;39539;52.202;9.876;2022-08-19T01:33:42;13.23;;;12.13;;
19675;SDS011;39539;52.202;9.876;2022-08-19T01:36:09;12.07;;;11.10;;
19675;SDS011;39539;52.202;9.876;2022-08-19T01:38:38;12.40;;;11.50;;
19675;SDS011;39539;52.202;9.876;2022-08-19T01:41:05;13.63;;;12.32;;
19675;SDS011;39539;52.202;9.876;2022-08-19T01:43:31;12.43;;;11.52;;
19675;SDS011;39539;52.202;9.876;2022-08-19T01:45:57;13.23;;;12.23;;
19675;SDS011;39539;52.202;9.876;2022-08-19T01:48:23;12.38;;;11.55;;
19675;SDS011;39539;52.202;9.876;2022-08-19T01:50:48;14.07;;;12.88;;
19675;SDS011;39539;52.202;9.876;2022-08-19T01:53:14;13.80;;;12.65;;
19675;SDS011;39539;52.202;9.876;2022-08-19T01:55:40;13.27;;;12.20;;
19675;SDS011;39539;52.202;9.876;2022-08-19T01:58:12;13.70;;;12.60;;
19675;SDS011;39539;52.202;9.876;2022-08-19T02:00:45;13.02;;;12.02;;
19675;SDS011;39539;52.202;9.876;2022-08-19T02:03:11;13.18;;;12.07;;
19675;SDS011;39539;52.202;9.876;2022-08-19T02:05:37;13.90;;;12.57;;
19675;SDS011;39539;52.202;9.876;2022-08-19T02:08:03;13.45;;;12.27;;
19675;SDS011;39539;52.202;9.876;2022-08-19T02:10:29;12.50;;;11.57;;
19675;SDS011;39539;52.202;9.876;2022-08-19T02:12:54;13.43;;;12.35;;
19675;SDS011;39539;52.202;9.876;2022-08-19T02:15:20;12.90;;;12.00;;
19675;SDS011;39539;52.202;9.876;2022-08-19T02:17:47;13.68;;;12.65;;
19675;SDS011;39539;52.202;9.876;2022-08-19T02:20:12;13.60;;;12.50;;
19675;SDS011;39539;52.202;9.876;2022-08-19T02:22:39;13.57;;;12.57;;
19675;SDS011;39539;52.202;9.876;2022-08-19T02:25:07;14.05;;;12.95;;
19675;SDS011;39539;52.202;9.876;2022-08-19T02:27:33;14.15;;;13.05;;
19675;SDS011;39539;52.202;9.876;2022-08-19T02:29:59;14.50;;;13.30;;
19675;SDS011;39539;52.202;9.876;2022-08-19T02:32:24;13.82;;;12.68;;
19675;SDS011;39539;52.202;9.876;2022-08-19T02:34:50;14.38;;;13.25;;
19675;SDS011;39539;52.202;9.876;2022-08-19T02:37:15;14.65;;;13.43;;
19675;SDS011;39539;52.202;9.876;2022-08-19T02:39:59;15.05;;;13.68;;
19675;SDS011;39539;52.202;9.876;2022-08-19T02:42:25;14.90;;;13.77;;
19675;SDS011;39539;52.202;9.876;2022-08-19T02:44:50;15.68;;;14.52;;
19675;SDS011;39539;52.202;9.876;2022-08-19T02:47:17;14.88;;;13.68;;
19675;SDS011;39539;52.202;9.876;2022-08-19T02:49:43;15.63;;;14.18;;
19675;SDS011;39539;52.202;9.876;2022-08-19T02:52:09;15.40;;;14.13;;
19675;SDS011;39539;52.202;9.876;2022-08-19T02:54:36;15.20;;;14.00;;
19675;SDS011;39539;52.202;9.876;2022-08-19T02:57:02;15.68;;;14.32;;
19675;SDS011;39539;52.202;9.876;2022-08-19T02:59:29;15.80;;;14.43;;
19675;SDS011;39539;52.202;9.876;2022-08-19T03:01:55;14.85;;;13.77;;
19675;SDS011;39539;52.202;9.876;2022-08-19T03:04:21;16.35;;;14.85;;
19675;SDS011;39539;52.202;9.876;2022-08-19T03:06:47;15.88;;;14.57;;
19675;SDS011;39539;52.202;9.876;2022-08-19T03:09:13;15.70;;;14.48;;
19675;SDS011;39539;52.202;9.876;2022-08-19T03:11:40;15.95;;;14.52;;
19675;SDS011;39539;52.202;9.876;2022-08-19T03:14:06;16.20;;;14.70;;
19675;SDS011;39539;52.202;9.876;2022-08-19T03:16:34;15.50;;;14.07;;
19675;SDS011;39539;52.202;9.876;2022-08-19T03:19:05;15.65;;;14.50;;
19675;SDS011;39539;52.202;9.876;2022-08-19T03:21:31;14.88;;;13.48;;
19675;SDS011;39539;52.202;9.876;2022-08-19T03:24:00;15.35;;;14.05;;
19675;SDS011;39539;52.202;9.876;2022-08-19T03:26:28;15.85;;;14.35;;
19675;SDS011;39539;52.202;9.876;2022-08-19T03:28:55;15.32;;;14.13;;
19675;SDS011;39539;52.202;9.876;2022-08-19T03:31:21;17.67;;;15.82;;
19675;SDS011;39539;52.202;9.876;2022-08-19T03:33:48;16.20;;;14.93;;
19675;SDS011;39539;52.202;9.876;2022-08-19T03:36:15;16.67;;;15.40;;
19675;SDS011;39539;52.202;9.876;2022-08-19T03:38:47;15.80;;;14.60;;
19675;SDS011;39539;52.202;9.876;2022-08-19T03:41:21;15.98;;;14.77;;
19675;SDS011;39539;52.202;9.876;2022-08-19T03:43:51;16.83;;;15.43;;
19675;SDS011;39539;52.202;9.876;2022-08-19T03:46:18;16.50;;;15.10;;
19675;SDS011;39539;52.202;9.876;2022-08-19T03:48:46;16.90;;;15.60;;
19675;SDS011;39539;52.202;9.876;2022-08-19T03:51:16;15.15;;;14.05;;
19675;SDS011;39539;52.202;9.876;2022-08-19T03:53:44;17.02;;;15.52;;
19675;SDS011;39539;52.202;9.876;2022-08-19T03:56:10;17.05;;;15.75;;
19675;SDS011;39539;52.202;9.876;2022-08-19T03:58:35;16.95;;;15.45;;
19675;SDS011;39539;52.202;9.876;2022-08-19T04:01:06;17.25;;;15.70;;
19675;SDS011;39539;52.202;9.876;2022-08-19T04:03:33;16.80;;;15.35;;
19675;SDS011;39539;52.202;9.876;2022-08-19T04:06:08;16.95;;;15.70;;
19675;SDS011;39539;52.202;9.876;2022-08-19T04:08:42;16.45;;;15.15;;
19675;SDS011;39539;52.202;9.876;2022-08-19T04:11:09;17.20;;;15.85;;
19675;SDS011;39539;52.202;9.876;2022-08-19T04:13:36;17.55;;;15.90;;
19675;SDS011;39539;52.202;9.876;2022-08-19T04:16:03;17.95;;;16.45;;
19675;SDS011;39539;52.202;9.876;2022-08-19T04:18:29;16.35;;;15.07;;
19675;SDS011;39539;52.202;9.876;2022-08-19T04:20:58;16.80;;;15.20;;
19675;SDS011;39539;52.202;9.876;2022-08-19T04:23:23;15.88;;;14.57;;
19675;SDS011;39539;52.202;9.876;2022-08-19T04:25:49;16.70;;;15.30;;
19675;SDS011;39539;52.202;9.876;2022-08-19T04:28:14;15.60;;;14.43;;
19675;SDS011;39539;52.202;9.876;2022-08-19T04:30:41;16.80;;;15.38;;
19675;SDS011;39539;52.202;9.876;2022-08-19T04:33:11;16.50;;;15.15;;
19675;SDS011;39539;52.202;9.876;2022-08-19T04:35:41;14.68;;;13.57;;
19675;SDS011;39539;52.202;9.876;2022-08-19T04:38:08;16.08;;;14.65;;
19675;SDS011;39539;52.202;9.876;2022-08-19T04:40:39;16.13;;;14.70;;
19675;SDS011;39539;52.202;9.876;2022-08-19T04:43:24;15.27;;;14.13;;
19675;SDS011;39539;52.202;9.876;2022-08-19T04:45:50;15.13;;;13.93;;
19675;SDS011;39539;52.202;9.876;2022-08-19T04:48:16;15.95;;;14.70;;
19675;SDS011;39539;52.202;9.876;2022-08-19T04:50:48;14.85;;;13.65;;
19675;SDS011;39539;52.202;9.876;2022-08-19T04:53:13;14.98;;;13.82;;
19675;SDS011;39539;52.202;9.876;2022-08-19T04:55:40;15.30;;;14.00;;
19675;SDS011;39539;52.202;9.876;2022-08-19T04:58:06;15.27;;;13.90;;
19675;SDS011;39539;52.202;9.876;2022-08-19T05:00:32;14.82;;;13.68;;
19675;SDS011;39539;52.202;9.876;2022-08-19T05:02:57;15.02;;;13.93;;
19675;SDS011;39539;52.202;9.876;2022-08-19T05:05:22;14.68;;;13.52;;
19675;SDS011;39539;52.202;9.876;2022-08-19T05:07:49;15.15;;;13.75;;
19675;SDS011;39539;52.202;9.876;2022-08-19T05:10:14;13.50;;;12.40;;
19675;SDS011;39539;52.202;9.876;2022-08-19T05:12:40;13.65;;;12.57;;
19675;SDS011;39539;52.202;9.876;2022-08-19T05:15:05;13.57;;;12.48;;
19675;SDS011;39539;52.202;9.876;2022-08-19T05:17:33;13.50;;;12.45;;
19675;SDS011;39539;52.202;9.876;2022-08-19T05:19:59;13.23;;;12.13;;
19675;SDS011;39539;52.202;9.876;2022-08-19T05:22:44;13.20;;;12.18;;
19675;SDS011;39539;52.202;9.876;2022-08-19T05:25:12;12.77;;;11.77;;
19675;SDS011;39539;52.202;9.876;2022-08-19T05:27:43;13.20;;;12.10;;
19675;SDS011;39539;52.202;9.876;2022-08-19T05:30:09;12.60;;;11.50;;
19675;SDS011;39539;52.202;9.876;2022-08-19T05:32:35;12.27;;;11.30;;
19675;SDS011;39539;52.202;9.876;2022-08-19T05:35:00;12.10;;;11.13;;
19675;SDS011;39539;52.202;9.876;2022-08-19T05:37:26;11.68;;;10.77;;
19675;SDS011;39539;52.202;9.876;2022-08-19T05:39:52;11.75;;;10.75;;
19675;SDS011;39539;52.202;9.876;2022-08-19T05:42:19;11.05;;;10.05;;
19675;SDS011;39539;52.202;9.876;2022-08-19T05:44:46;12.07;;;11.07;;
19675;SDS011;39539;52.202;9.876;2022-08-19T05:47:14;12.38;;;11.10;;
19675;SDS011;39539;52.202;9.876;2022-08-19T05:49:42;10.60;;;9.80;;
19675;SDS011;39539;52.202;9.876;2022-08-19T05:52:09;10.40;;;9.50;;
19675;SDS011;39539;52.202;9.876;2022-08-19T05:54:37;11.02;;;10.13;;
19675;SDS011;39539;52.202;9.876;2022-08-19T05:57:05;10.98;;;10.18;;
19675;SDS011;39539;52.202;9.876;2022-08-19T05:59:31;11.20;;;10.30;;
19675;SDS011;39539;52.202;9.876;2022-08-19T06:01:56;11.05;;;10.15;;
19675;SDS011;39539;52.202;9.876;2022-08-19T06:04:22;12.18;;;11.27;;
19675;SDS011;39539;52.202;9.876;2022-08-19T06:06:49;12.07;;;11.02;;
19675;SDS011;39539;52.202;9.876;2022-08-19T06:09:17;11.00;;;10.10;;
19675;SDS011;39539;52.202;9.876;2022-08-19T06:11:44;11.30;;;10.40;;
19675;SDS011;39539;52.202;9.876;2022-08-19T06:14:14;12.07;;;11.07;;
19675;SDS011;39539;52.202;9.876;2022-08-19T06:16:42;13.98;;;11.43;;
19675;SDS011;39539;52.202;9.876;2022-08-19T06:19:10;12.52;;;11.52;;
19675;SDS011;39539;52.202;9.876;2022-08-19T06:21:38;12.60;;;11.40;;
19675;SDS011;39539;52.202;9.876;2022-08-19T06:24:06;12.93;;;11.95;;
19675;SDS011;39539;52.202;9.876;2022-08-19T06:26:33;12.45;;;11.32;;
19675;SDS011;39539;52.202;9.876;2022-08-19T06:29:01;13.35;;;12.25;;
19675;SDS011;39539;52.202;9.876;2022-08-19T06:31:29;14.70;;;13.55;;
19675;SDS011;39539;52.202;9.876;2022-08-19T06:33:56;14.18;;;13.07;;
19675;SDS011;39539;52.202;9.876;2022-08-19T06:36:24;14.35;;;13.25;;
19675;SDS011;39539;52.202;9.876;2022-08-19T06:39:03;14.93;;;13.52;;
19675;SDS011;39539;52.202;9.876;2022-08-19T06:41:37;16.30;;;15.10;;
19675;SDS011;39539;52.202;9.876;2022-08-19T06:44:05;16.15;;;14.90;;
19675;SDS011;39539;52.202;9.876;2022-08-19T06:46:31;17.38;;;15.98;;
19675;SDS011;39539;52.202;9.876;2022-08-19T06:48:57;17.10;;;15.65;;
19675;SDS011;39539;52.202;9.876;2022-08-19T06:51:23;17.65;;;16.08;;
19675;SDS011;39539;52.202;9.876;2022-08-19T06:53:50;18.48;;;16.88;;
19675;SDS011;39539;52.202;9.876;2022-08-19T06:56:19;18.60;;;17.08;;
19675;SDS011;39539;52.202;9.876;2022-08-19T06:58:51;18.38;;;16.67;;
19675;SDS011;39539;52.202;9.876;2022-08-19T07:01:18;18.50;;;16.73;;
19675;SDS011;39539;52.202;9.876;2022-08-19T07:03:46;19.55;;;17.80;;
19675;SDS011;39539;52.202;9.876;2022-08-19T07:06:15;20.13;;;18.17;;
19675;SDS011;39539;52.202;9.876;2022-08-19T07:08:43;18.55;;;16.98;;
19675;SDS011;39539;52.202;9.876;2022-08-19T07:11:10;20.00;;;17.80;;
19675;SDS011;39539;52.202;9.876;2022-08-19T07:13:38;17.73;;;16.27;;
19675;SDS011;39539;52.202;9.876;2022-08-19T07:16:05;17.75;;;16.15;;
19675;SDS011;39539;52.202;9.876;2022-08-19T07:18:38;16.55;;;15.15;;
19675;SDS011;39539;52.202;9.876;2022-08-19T07:21:05;18.08;;;16.52;;
19675;SDS011;39539;52.202;9.876;2022-08-19T07:23:36;16.13;;;14.82;;
19675;SDS011;39539;52.202;9.876;2022-08-19T07:26:12;15.82;;;14.63;;
19675;SDS011;39539;52.202;9.876;2022-08-19T07:28:42;16.10;;;14.77;;
19675;SDS011;39539;52.202;9.876;2022-08-19T07:31:10;16.75;;;15.25;;
19675;SDS011;39539;52.202;9.876;2022-08-19T07:33:44;15.85;;;14.63;;
19675;SDS011;39539;52.202;9.876;2022-08-19T07:36:13;17.08;;;15.77;;
19675;SDS011;39539;52.202;9.876;2022-08-19T07:38:43;16.13;;;14.93;;
19675;SDS011;39539;52.202;9.876;2022-08-19T07:41:12;16.65;;;15.23;;
19675;SDS011;39539;52.202;9.876;2022-08-19T07:43:39;16.20;;;14.90;;
19675;SDS011;39539;52.202;9.876;2022-08-19T07:46:06;16.53;;;15.20;;
19675;SDS011;39539;52.202;9.876;2022-08-19T07:48:32;15.80;;;14.50;;
19675;SDS011;39539;52.202;9.876;2022-08-19T07:50:58;15.10;;;13.90;;
19675;SDS011;39539;52.202;9.876;2022-08-19T07:53:29;14.23;;;13.02;;
19675;SDS011;39539;52.202;9.876;2022-08-19T07:55:57;13.80;;;12.70;;
19675;SDS011;39539;52.202;9.876;2022-08-19T07:58:34;13.50;;;12.48;;
19675;SDS011;39539;52.202;9.876;2022-08-19T08:01:03;14.70;;;13.23;;
19675;SDS011;39539;52.202;9.876;2022-08-19T08:03:31;13.27;;;12.27;;
19675;SDS011;39539;52.202;9.876;2022-08-19T08:06:16;13.07;;;12.07;;
19675;SDS011;39539;52.202;9.876;2022-08-19T08:09:00;13.57;;;12.30;;
19675;SDS011;39539;52.202;9.876;2022-08-19T08:11:53;13.18;;;11.90;;
19675;SDS011;39539;52.202;9.876;2022-08-19T08:14:25;12.63;;;11.55;;
19675;SDS011;39539;52.202;9.876;2022-08-19T08:16:53;11.70;;;10.80;;
19675;SDS011;39539;52.202;9.876;2022-08-19T08:19:19;13.18;;;12.07;;
19675;SDS011;39539;52.202;9.876;2022-08-19T08:21:46;10.68;;;9.88;;
19675;SDS011;39539;52.202;9.876;2022-08-19T08:24:14;10.32;;;9.43;;
19675;SDS011;39539;52.202;9.876;2022-08-19T08:26:40;9.30;;;8.57;;
19675;SDS011;39539;52.202;9.876;2022-08-19T08:29:08;10.85;;;10.05;;
19675;SDS011;39539;52.202;9.876;2022-08-19T08:31:35;17.13;;;9.93;;
19675;SDS011;39539;52.202;9.876;2022-08-19T08:34:02;9.07;;;8.27;;
19675;SDS011;39539;52.202;9.876;2022-08-19T08:36:28;7.53;;;6.93;;
19675;SDS011;39539;52.202;9.876;2022-08-19T08:38:53;8.57;;;7.88;;
19675;SDS011;39539;52.202;9.876;2022-08-19T08:44:39;9.07;;;8.43;;
19675;SDS011;39539;52.202;9.876;2022-08-19T08:47:02;9.77;;;8.85;;
19675;SDS011;39539;52.202;9.876;2022-08-19T08:49:49;9.00;;;8.23;;
19675;SDS011;39539;52.202;9.876;2022-08-19T08:52:24;8.25;;;7.57;;
19675;SDS011;39539;52.202;9.876;2022-08-19T08:55:13;7.65;;;7.15;;
19675;SDS011;39539;52.202;9.876;2022-08-19T09:00:21;8.50;;;7.80;;
19675;SDS011;39539;52.202;9.876;2022-08-19T09:03:19;7.93;;;7.30;;
19675;SDS011;39539;52.202;9.876;2022-08-19T09:12:11;5.80;;;5.40;;
19675;SDS011;39539;52.202;9.876;2022-08-19T09:17:20;5.95;;;5.32;;
19675;SDS011;39539;52.202;9.876;2022-08-19T09:19:56;5.63;;;5.22;;
19675;SDS011;39539;52.202;9.876;2022-08-19T09:22:25;5.32;;;4.82;;
19675;SDS011;39539;52.202;9.876;2022-08-19T09:24:53;5.28;;;4.88;;
19675;SDS011;39539;52.202;9.876;2022-08-19T09:27:19;4.85;;;4.55;;
19675;SDS011;39539;52.202;9.876;2022-08-19T09:29:48;4.40;;;4.10;;
19675;SDS011;39539;52.202;9.876;2022-08-19T09:32:17;5.97;;;5.47;;
19675;SDS011;39539;52.202;9.876;2022-08-19T09:34:43;5.53;;;4.50;;
19675;SDS011;39539;52.202;9.876;2022-08-19T09:37:09;4.65;;;4.25;;
19675;SDS011;39539;52.202;9.876;2022-08-19T09:39:35;4.18;;;3.78;;
19675;SDS011;39539;52.202;9.876;2022-08-19T09:42:02;4.40;;;3.95;;
19675;SDS011;39539;52.202;9.876;2022-08-19T09:44:29;3.35;;;3.05;;
19675;SDS011;39539;52.202;9.876;2022-08-19T09:47:00;3.35;;;3.05;;
19675;SDS011;39539;52.202;9.876;2022-08-19T09:49:26;3.80;;;2.90;;
19675;SDS011;39539;52.202;9.876;2022-08-19T09:51:53;3.38;;;3.03;;
19675;SDS011;39539;52.202;9.876;2022-08-19T09:54:20;4.53;;;3.17;;
19675;SDS011;39539;52.202;9.876;2022-08-19T09:56:46;3.30;;;3.00;;
19675;SDS011;39539;52.202;9.876;2022-08-19T09:59:11;3.40;;;3.20;;
19675;SDS011;39539;52.202;9.876;2022-08-19T10:01:42;2.72;;;2.53;;
19675;SDS011;39539;52.202;9.876;2022-08-19T10:04:09;2.70;;;2.50;;
19675;SDS011;39539;52.202;9.876;2022-08-19T10:06:37;3.63;;;3.15;;
19675;SDS011;39539;52.202;9.876;2022-08-19T10:09:05;5.45;;;3.75;;
19675;SDS011;39539;52.202;9.876;2022-08-19T10:11:32;3.90;;;3.58;;
19675;SDS011;39539;52.202;9.876;2022-08-19T10:14:00;3.83;;;3.53;;
19675;SDS011;39539;52.202;9.876;2022-08-19T10:16:26;3.78;;;3.47;;
19675;SDS011;39539;52.202;9.876;2022-08-19T10:18:52;4.15;;;3.65;;
19675;SDS011;39539;52.202;9.876;2022-08-19T10:21:26;4.03;;;3.40;;
19675;SDS011;39539;52.202;9.876;2022-08-19T10:23:55;6.35;;;2.28;;
19675;SDS011;39539;52.202;9.876;2022-08-19T10:26:25;3.67;;;2.55;;
19675;SDS011;39539;52.202;9.876;2022-08-19T10:28:53;2.70;;;2.05;;
19675;SDS011;39539;52.202;9.876;2022-08-19T10:31:22;2.13;;;2.00;;
19675;SDS011;39539;52.202;9.876;2022-08-19T10:33:52;2.53;;;2.28;;
19675;SDS011;39539;52.202;9.876;2022-08-19T10:36:24;2.50;;;2.28;;
19675;SDS011;39539;52.202;9.876;2022-08-19T10:39:00;3.40;;;2.15;;
19675;SDS011;39539;52.202;9.876;2022-08-19T10:41:33;2.53;;;2.33;;
19675;SDS011;39539;52.202;9.876;2022-08-19T10:44:02;1.58;;;1.48;;
19675;SDS011;39539;52.202;9.876;2022-08-19T10:46:32;1.45;;;1.30;;
19675;SDS011;39539;52.202;9.876;2022-08-19T10:49:03;1.92;;;1.70;;
19675;SDS011;39539;52.202;9.876;2022-08-19T10:51:30;3.42;;;1.73;;
19675;SDS011;39539;52.202;9.876;2022-08-19T10:54:15;3.05;;;1.90;;
19675;SDS011;39539;52.202;9.876;2022-08-19T10:56:41;3.00;;;1.45;;
19675;SDS011;39539;52.202;9.876;2022-08-19T10:59:16;1.98;;;1.50;;
19675;SDS011;39539;52.202;9.876;2022-08-19T11:01:45;1.83;;;1.35;;
19675;SDS011;39539;52.202;9.876;2022-08-19T11:04:14;1.60;;;1.50;;
19675;SDS011;39539;52.202;9.876;2022-08-19T11:06:42;1.58;;;1.48;;
19675;SDS011;39539;52.202;9.876;2022-08-19T11:09:13;3.63;;;1.77;;
19675;SDS011;39539;52.202;9.876;2022-08-19T11:11:46;3.65;;;1.65;;
19675;SDS011;39539;52.202;9.876;2022-08-19T11:14:15;2.08;;;1.60;;
19675;SDS011;39539;52.202;9.876;2022-08-19T11:16:45;1.50;;;1.40;;
19675;SDS011;39539;52.202;9.876;2022-08-19T11:19:12;1.55;;;1.45;;
19675;SDS011;39539;52.202;9.876;2022-08-19T11:21:42;1.70;;;1.55;;
19675;SDS011;39539;52.202;9.876;2022-08-19T11:24:15;1.50;;;1.27;;
19675;SDS011;39539;52.202;9.876;2022-08-19T11:26:43;1.52;;;1.42;;
19675;SDS011;39539;52.202;9.876;2022-08-19T11:29:10;1.52;;;1.38;;
19675;SDS011;39539;52.202;9.876;2022-08-19T11:31:40;1.77;;;1.60;;
19675;SDS011;39539;52.202;9.876;2022-08-19T11:34:09;3.20;;;1.35;;
19675;SDS011;39539;52.202;9.876;2022-08-19T11:36:40;1.65;;;1.30;;
19675;SDS011;39539;52.202;9.876;2022-08-19T11:39:07;2.03;;;1.50;;
19675;SDS011;39539;52.202;9.876;2022-08-19T11:41:35;1.65;;;1.40;;
19675;SDS011;39539;52.202;9.876;2022-08-19T11:44:00;1.85;;;1.35;;
19675;SDS011;39539;52.202;9.876;2022-08-19T11:46:27;1.60;;;1.50;;
19675;SDS011;39539;52.202;9.876;2022-08-19T11:48:54;1.52;;;1.40;;
19675;SDS011;39539;52.202;9.876;2022-08-19T11:51:24;3.03;;;1.60;;
19675;SDS011;39539;52.202;9.876;2022-08-19T11:53:51;1.65;;;1.55;;
19675;SDS011;39539;52.202;9.876;2022-08-19T11:56:18;1.80;;;1.70;;
19675;SDS011;39539;52.202;9.876;2022-08-19T11:58:46;1.73;;;1.60;;
19675;SDS011;39539;52.202;9.876;2022-08-19T12:01:12;2.20;;;1.63;;
19675;SDS011;39539;52.202;9.876;2022-08-19T12:03:44;1.70;;;1.60;;
19675;SDS011;39539;52.202;9.876;2022-08-19T12:06:12;3.33;;;1.48;;
19675;SDS011;39539;52.202;9.876;2022-08-19T12:08:40;1.50;;;1.40;;
19675;SDS011;39539;52.202;9.876;2022-08-19T12:11:06;1.80;;;1.70;;
19675;SDS011;39539;52.202;9.876;2022-08-19T12:13:35;1.75;;;1.60;;
19675;SDS011;39539;52.202;9.876;2022-08-19T12:16:07;1.95;;;1.83;;
19675;SDS011;39539;52.202;9.876;2022-08-19T12:18:43;2.38;;;1.73;;
19675;SDS011;39539;52.202;9.876;2022-08-19T12:21:11;3.45;;;1.67;;
19675;SDS011;39539;52.202;9.876;2022-08-19T12:23:38;1.92;;;1.60;;
19675;SDS011;39539;52.202;9.876;2022-08-19T12:26:04;3.13;;;1.38;;
19675;SDS011;39539;52.202;9.876;2022-08-19T12:28:32;1.70;;;1.60;;
19675;SDS011;39539;52.202;9.876;2022-08-19T12:30:58;1.63;;;1.30;;
19675;SDS011;39539;52.202;9.876;2022-08-19T12:33:23;1.60;;;1.50;;
19675;SDS011;39539;52.202;9.876;2022-08-19T12:35:52;2.53;;;1.85;;
19675;SDS011;39539;52.202;9.876;2022-08-19T12:38:18;1.77;;;1.38;;
19675;SDS011;39539;52.202;9.876;2022-08-19T12:40:47;1.42;;;1.30;;
19675;SDS011;39539;52.202;9.876;2022-08-19T12:43:14;1.48;;;1.38;;
19675;SDS011;39539;52.202;9.876;2022-08-19T12:45:41;1.70;;;1.50;;
19675;SDS011;39539;52.202;9.876;2022-08-19T12:48:07;1.42;;;1.20;;
19675;SDS011;39539;52.202;9.876;2022-08-19T12:50:33;1.40;;;1.30;;
19675;SDS011;39539;52.202;9.876;2022-08-19T12:52:59;1.50;;;1.40;;
19675;SDS011;39539;52.202;9.876;2022-08-19T12:55:24;1.67;;;1.50;;
19675;SDS011;39539;52.202;9.876;2022-08-19T12:57:50;1.80;;;1.27;;
19675;SDS011;39539;52.202;9.876;2022-08-19T13:00:18;1.48;;;1.38;;
19675;SDS011;39539;52.202;9.876;2022-08-19T13:02:46;2.13;;;1.27;;
19675;SDS011;39539;52.202;9.876;2022-08-19T13:05:23;1.70;;;1.30;;
19675;SDS011;39539;52.202;9.876;2022-08-19T13:07:52;1.30;;;1.30;;
19675;SDS011;39539;52.202;9.876;2022-08-19T13:10:22;2.05;;;1.70;;
19675;SDS011;39539;52.202;9.876;2022-08-19T13:12:50;1.40;;;1.30;;
19675;SDS011;39539;52.202;9.876;2022-08-19T13:15:17;2.95;;;1.90;;
19675;SDS011;39539;52.202;9.876;2022-08-19T13:17:50;1.40;;;1.30;;
19675;SDS011;39539;52.202;9.876;2022-08-19T13:20:19;1.77;;;1.35;;
19675;SDS011;39539;52.202;9.876;2022-08-19T13:22:46;3.05;;;1.70;;
19675;SDS011;39539;52.202;9.876;2022-08-19T13:25:13;1.67;;;1.45;;
19675;SDS011;39539;52.202;9.876;2022-08-19T13:27:41;2.45;;;1.40;;
19675;SDS011;39539;52.202;9.876;2022-08-19T13:30:07;1.73;;;1.63;;
19675;SDS011;39539;52.202;9.876;2022-08-19T13:32:53;1.52;;;1.33;;
19675;SDS011;39539;52.202;9.876;2022-08-19T13:35:45;1.20;;;1.10;;
19675;SDS011;39539;52.202;9.876;2022-08-19T13:38:14;2.05;;;1.30;;
19675;SDS011;39539;52.202;9.876;2022-08-19T13:40:41;1.30;;;1.20;;
19675;SDS011;39539;52.202;9.876;2022-08-19T13:43:07;1.52;;;1.42;;
19675;SDS011;39539;52.202;9.876;2022-08-19T13:45:34;2.60;;;1.20;;
19675;SDS011;39539;52.202;9.876;2022-08-19T13:48:00;5.28;;;1.08;;
19675;SDS011;39539;52.202;9.876;2022-08-19T13:50:30;1.63;;;1.27;;
19675;SDS011;39539;52.202;9.876;2022-08-19T13:52:56;1.95;;;1.05;;
19675;SDS011;39539;52.202;9.876;2022-08-19T13:55:22;1.83;;;1.10;;
19675;SDS011;39539;52.202;9.876;2022-08-19T13:57:53;1.20;;;1.20;;
19675;SDS011;39539;52.202;9.876;2022-08-19T14:00:20;2.75;;;1.25;;
19675;SDS011;39539;52.202;9.876;2022-08-19T14:02:50;1.30;;;1.20;;
19675;SDS011;39539;52.202;9.876;2022-08-19T14:05:16;1.40;;;1.30;;
19675;SDS011;39539;52.202;9.876;2022-08-19T14:07:42;1.30;;;1.20;;
19675;SDS011;39539;52.202;9.876;2022-08-19T14:10:09;1.40;;;1.30;;
19675;SDS011;39539;52.202;9.876;2022-08-19T14:12:36;1.48;;;1.30;;
19675;SDS011;39539;52.202;9.876;2022-08-19T14:15:05;2.53;;;1.50;;
19675;SDS011;39539;52.202;9.876;2022-08-19T14:17:34;1.42;;;1.33;;
19675;SDS011;39539;52.202;9.876;2022-08-19T14:20:00;1.55;;;1.38;;
19675;SDS011;39539;52.202;9.876;2022-08-19T14:22:34;1.23;;;1.13;;
19675;SDS011;39539;52.202;9.876;2022-08-19T14:25:07;1.45;;;1.27;;
19675;SDS011;39539;52.202;9.876;2022-08-19T14:27:34;1.10;;;1.10;;
19675;SDS011;39539;52.202;9.876;2022-08-19T14:30:01;1.20;;;1.20;;
19675;SDS011;39539;52.202;9.876;2022-08-19T14:32:27;3.33;;;1.17;;
19675;SDS011;39539;52.202;9.876;2022-08-19T14:34:54;1.38;;;1.20;;
19675;SDS011;39539;52.202;9.876;2022-08-19T14:37:20;1.25;;;1.08;;
19675;SDS011;39539;52.202;9.876;2022-08-19T14:39:47;1.70;;;1.50;;
19675;SDS011;39539;52.202;9.876;2022-08-19T14:42:12;1.80;;;1.33;;
19675;SDS011;39539;52.202;9.876;2022-08-19T14:44:39;1.45;;;1.35;;
19675;SDS011;39539;52.202;9.876;2022-08-19T14:47:06;1.40;;;1.30;;
19675;SDS011;39539;52.202;9.876;2022-08-19T14:49:32;2.92;;;1.80;;
19675;SDS011;39539;52.202;9.876;2022-08-19T14:51:58;2.15;;;1.30;;
19675;SDS011;39539;52.202;9.876;2022-08-19T14:54:23;1.35;;;1.27;;
19675;SDS011;39539;52.202;9.876;2022-08-19T14:56:49;2.13;;;1.27;;
19675;SDS011;39539;52.202;9.876;2022-08-19T14:59:15;3.40;;;1.30;;